Weather observations for the past three days for
Williams/Clark Memorial Airport
Metric (Imperial)
Date Time (mst) Wind (kph) Vis. (km) Weather Sky Cond. Temperature (ºC) Relative Humidity Wind Chill (°C) Heat Index (°C) Pressure Precipitation (cm)
Air Dwpt 6 hour altimeter (cm) sea level (mb) 1 hr 3 hr 6 hr
Max. Min.
04 05:35 S 11 16.09 Fair CLR 15 11 77% 76.71 0.0
04 05:15 S 17 G 26 16.09 Fair CLR 16 10 68% 76.71 0.0
04 04:55 S 26 16.09 Fair CLR 16 11 72% 76.71 0.0
04 04:35 S 17 G 30 16.09 Fair CLR 16 12 77% 76.71 0.0
04 04:15 S 22 16.09 Fair CLR 16 11 72% 76.68 0.0
04 03:55 S 20 G 41 16.09 Fair CLR 17 11 68% 76.68 0.0
04 03:35 S 24 G 41 16.09 Fair CLR 17 10 64% 76.66 0.0
04 03:15 S 24 G 35 16.09 A Few Clouds FEW032 17 11 68% 76.66 0.0
04 02:55 S 19 G 31 16.09 Fair CLR 17 10 64% 76.66 0.0
04 02:35 S 20 G 37 16.09 A Few Clouds FEW030 17 10 64% 76.66 0.0
04 02:15 S 24 16.09 Partly Cloudy SCT030 SCT036 17 10 64% 76.66 0.0
04 01:55 S 22 16.09 Fair CLR 17 10 64% 76.66 0.0
04 01:35 S 13 G 24 16.09 Fair CLR 17 9 60% 76.66 0.0
04 01:15 S 17 16.09 Fair CLR 18 10 60% 76.68 0.0
04 00:55 S 17 16.09 Fair CLR 18 11 64% 76.68 0.0
04 00:35 S 19 G 33 16.09 Fair CLR 18 11 64% 76.68 0.0
04 00:15 S 22 G 31 16.09 A Few Clouds FEW040 FEW046 19 11 60% 76.68 0.0
03 23:55 S 28 G 41 16.09 Fair CLR 19 11 60% 76.66 0.0
03 23:35 S 22 16.09 Fair CLR 19 10 56% 76.66 0.0
03 23:15 S 17 16.09 Partly Cloudy SCT041 SCT046 SCT055 18 10 60% 76.66 0.0
03 22:55 S 13 16.09 Mostly Cloudy SCT043 BKN050 18 10 60% 76.68 0.0
03 22:35 S 13 16.09 A Few Clouds FEW050 18 10 60% 76.68 0.0
03 22:15 S 15 16.09 Fair CLR 18 10 60% 76.68 0.0
03 21:55 S 15 16.09 Fair CLR 18 9 56% 76.68 0.0
03 21:35 S 13 16.09 Fair CLR 18 9 56% 76.71 0.0
03 21:15 S 17 G 28 16.09 Fair CLR 19 8 49% 76.68 0.0
03 20:55 S 13 16.09 A Few Clouds FEW049 19 8 49% 76.68 0.0
03 20:35 SW 13 16.09 A Few Clouds FEW047 19 8 49% 76.68 0.0
03 20:15 S 11 16.09 Fair CLR 19 9 52% 76.68 0.0
03 19:55 S 15 16.09 Fair CLR 19 9 52% 76.66 0.0
03 19:35 S 17 16.09 Fair CLR 20 9 49% 76.63 0.0
03 19:15 SW 20 G 37 16.09 Fair CLR 20 9 49% 76.63 0.0
03 18:55 SW 26 G 37 16.09 Fair CLR 21 8 43% 76.63 0.0
03 18:35 SW 28 G 37 16.09 Fair CLR 22 9 44% 76.63 0.0
03 18:15 SW 19 G 39 16.09 Fair CLR 22 8 41% 76.63 0.0
03 17:55 SW 20 G 44 16.09 Fair CLR 23 8 38% 76.63 0.0
03 17:35 SW 24 G 44 16.09 Fair CLR 24 8 36% 25 76.61 0.0
03 17:15 SW 30 G 44 16.09 Fair CLR 24 7 34% 25 76.61 0.0
03 16:35 SW 30 G 46 16.09 Fair CLR 23 7 36% 76.63 0.0
03 16:15 SW 28 G 50 16.09 Fair CLR 24 7 34% 25 76.63 0.0
03 15:55 SW 35 G 48 16.09 Fair and Breezy CLR 25 6 30% 25 76.66 0.0
03 15:35 SW 31 G 50 16.09 A Few Clouds FEW065 FEW075 25 5 28% 25 76.66 0.0
03 15:15 SW 28 G 50 16.09 Partly Cloudy SCT065 25 6 30% 25 76.68 0.0
03 14:55 SW 24 G 43 16.09 A Few Clouds FEW065 24 7 34% 25 76.68 0.0
03 14:35 SW 31 G 57 16.09 Fair CLR 25 5 28% 25 76.71 0.0
03 14:15 SW 26 G 50 16.09 A Few Clouds FEW065 25 4 26% 25 76.71 0.0
03 13:55 SW 24 G 50 16.09 A Few Clouds FEW065 25 6 30% 25 76.71 0.0
03 13:35 SW 41 16.09 Partly Cloudy and Breezy SCT060 25 5 28% 25 76.71 0.0
03 13:15 SW 35 G 50 16.09 A Few Clouds and Breezy FEW060 25 6 30% 25 76.73 0.0
03 12:55 SW 46 G 63 16.09 A Few Clouds and Windy FEW060 25 5 28% 25 76.73 0.0
03 12:35 SW 35 G 52 16.09 Fair and Breezy CLR 25 6 30% 25 76.76 0.0
03 12:15 S 44 G 61 16.09 Fair and Windy CLR 24 6 31% 25 76.76 0.0
03 11:55 SW 33 G 56 16.09 Fair and Breezy CLR 24 5 29% 25 76.76 0.0
03 11:35 SW 31 G 57 16.09 A Few Clouds FEW055 24 6 31% 25 76.78 0.0
03 11:15 S 31 G 63 16.09 Fair CLR 23 7 36% 76.81 0.0
03 10:55 SW 33 G 56 16.09 Fair and Breezy CLR 23 7 36% 76.81 0.0
03 10:35 S 31 G 54 16.09 Fair CLR 22 7 38% 76.81 0.0
03 10:15 S 28 G 44 16.09 Fair CLR 22 8 41% 76.81 0.0
03 09:55 S 31 G 48 16.09 Fair CLR 22 8 41% 76.81 0.0
03 09:35 S 33 G 50 16.09 Fair and Breezy CLR 21 8 43% 76.81 0.0
03 09:15 S 31 G 46 16.09 Fair CLR 21 8 43% 76.81 0.0
03 08:55 S 28 G 44 16.09 Fair CLR 21 8 43% 76.81 0.0
03 08:35 S 20 G 31 16.09 Fair CLR 20 9 49% 76.81 0.0
03 08:15 SW 22 G 44 16.09 Fair CLR 19 9 52% 76.84 0.0
03 07:55 SW 24 G 39 16.09 Fair CLR 19 9 52% 76.81 0.0
03 07:35 S 22 G 39 16.09 Fair CLR 19 8 49% 76.81 0.0
03 07:15 SW 17 G 28 16.09 Fair CLR 18 6 46% 76.81 0.0
03 06:55 S 22 16.09 Fair CLR 17 5 45% 76.81 0.0
03 06:35 S 19 16.09 Fair CLR 17 5 45% 76.78 0.0
03 06:15 S 11 G 22 16.09 Fair CLR 16 5 48% 76.78 0.0
03 05:55 S 19 G 31 16.09 Fair CLR 16 4 45% 76.76 0.0
03 05:35 S 20 G 35 16.09 Fair CLR 16 4 45% 76.76 0.0
03 05:15 S 20 G 37 16.09 Fair CLR 16 3 42% 76.76 0.0
03 04:55 S 24 G 33 16.09 Fair CLR 16 3 42% 76.73 0.0
03 04:35 S 22 G 35 16.09 Fair CLR 17 2 37% 76.71 0.0
03 04:15 SW 26 G 46 16.09 Fair CLR 17 3 39% 76.71 0.0
03 03:55 SW 24 G 37 16.09 Fair CLR 17 2 37% 76.73 0.0
03 03:35 SW 20 16.09 Fair CLR 17 2 37% 76.73 0.0
03 03:15 S 17 G 31 16.09 Fair CLR 17 2 37% 76.76 0.0
03 02:55 SW 19 G 31 16.09 Fair CLR 17 1 34% 76.76 0.0
03 02:35 SW 17 G 31 16.09 Fair CLR 17 0 32% 76.76 0.0
03 02:15 SW 17 G 28 16.09 Fair CLR 17 -1 30% 76.78 0.0
03 01:55 SW 15 G 26 16.09 Fair CLR 16 -1 31% 76.78 0.0
03 01:35 S 17 16.09 Fair CLR 16 -1 31% 76.81 0.0
03 01:15 S 15 G 24 16.09 Fair CLR 17 -2 27% 76.84 0.0
03 00:55 S 15 16.09 Fair CLR 17 -2 27% 76.84 0.0
03 00:35 S 15 G 26 16.09 Fair CLR 17 -1 30% 76.84 0.0
03 00:15 S 19 16.09 Fair CLR 17 0 32% 76.84 0.0
02 23:55 S 20 G 33 16.09 Fair CLR 17 0 32% 76.84 0.0
02 23:35 SW 22 16.09 Fair CLR 17 2 37% 76.84 0.0
02 23:15 SW 17 G 28 16.09 Fair CLR 17 3 39% 76.84 0.0
02 22:55 SW 17 16.09 Fair CLR 18 3 37% 76.84 0.0
02 22:35 S 15 G 31 16.09 Fair CLR 18 2 34% 76.84 0.0
02 22:15 S 19 16.09 Fair CLR 18 2 34% 76.84 0.0
02 21:55 S 22 16.09 Fair CLR 19 3 35% 76.84 0.0
02 21:35 S 24 G 33 16.09 Fair CLR 19 3 35% 76.84 0.0
02 21:15 S 22 G 35 16.09 Fair CLR 19 4 37% 76.84 0.0
02 20:55 S 17 16.09 Fair CLR 19 4 37% 76.81 0.0
02 20:35 S 19 16.09 Fair CLR 19 4 37% 76.81 0.0
02 20:15 SW 15 G 26 16.09 Fair CLR 19 4 37% 76.78 0.0
02 19:55 SW 13 16.09 Fair CLR 20 4 35% 76.78 0.0
02 19:35 SW 13 16.09 Fair CLR 20 5 38% 76.76 0.0
02 19:15 SW 22 16.09 Fair CLR 21 4 33% 76.76 0.0
02 18:55 SW 13 G 24 16.09 A Few Clouds FEW075 21 4 33% 76.76 0.0
02 18:35 SW 19 G 33 16.09 Fair CLR 22 3 29% 76.76 0.0
02 18:15 SW 22 G 35 16.09 Fair CLR 23 3 27% 76.76 0.0
02 17:55 SW 31 G 44 16.09 Fair CLR 23 2 25% 76.76 0.0
02 17:35 SW 22 G 48 16.09 Fair CLR 24 3 25% 25 76.76 0.0
02 17:15 SW 24 G 44 16.09 Fair CLR 24 3 25% 25 76.76 0.0
02 16:55 SW 28 G 48 16.09 Fair CLR 24 5 29% 25 76.76 0.0
02 16:35 SW 30 G 44 16.09 A Few Clouds FEW070 FEW085 25 5 28% 25 76.76 0.0
02 16:15 SW 28 G 54 16.09 Fair CLR 24 5 29% 25 76.78 0.0
02 15:55 SW 35 G 48 16.09 Fair and Breezy CLR 25 5 28% 25 76.78 0.0
02 15:35 SW 33 G 54 16.09 A Few Clouds and Breezy FEW065 25 6 30% 25 76.78 0.0
02 15:15 SW 37 G 54 16.09 Partly Cloudy and Breezy SCT065 25 7 32% 25 76.81 0.0
02 14:55 SW 26 G 57 16.09 Fair CLR 25 6 30% 25 76.81 0.0
02 14:35 SW 37 G 50 16.09 Fair and Breezy CLR 26 7 30% 26 76.84 0.0
02 14:15 SW 31 G 50 16.09 A Few Clouds FEW090 26 6 28% 26 76.86 0.0
02 13:55 S 37 G 54 16.09 A Few Clouds and Breezy FEW060 FEW090 25 7 32% 25 76.86 0.0
02 13:35 SW 33 G 59 16.09 A Few Clouds and Breezy FEW060 FEW070 FEW085 25 8 34% 26 76.86 0.0
02 13:15 S 26 G 56 16.09 A Few Clouds FEW055 FEW070 FEW090 25 8 34% 26 76.89 0.0
02 12:55 SW 24 G 48 16.09 A Few Clouds FEW055 FEW075 FEW095 25 9 36% 26 76.89 0.0
02 12:35 SW 30 G 44 16.09 Partly Cloudy FEW050 SCT075 SCT095 24 9 39% 25 76.91 0.0
02 12:15 S 28 G 48 16.09 Mostly Cloudy FEW049 SCT055 BKN080 24 9 39% 25 76.91 0.0
02 11:55 S 35 G 44 16.09 Mostly Cloudy and Breezy SCT049 SCT060 BKN095 24 9 39% 25 76.94 0.0
02 11:35 S 26 G 43 16.09 Partly Cloudy FEW049 SCT060 SCT075 24 10 41% 25 76.96 0.0
02 11:15 SW 28 G 50 16.09 Partly Cloudy FEW047 FEW060 SCT085 24 10 41% 25 76.96 0.0
02 10:55 S 35 G 46 16.09 A Few Clouds and Breezy FEW047 FEW055 FEW085 24 9 39% 25 76.96 0.0
02 10:35 SW 26 G 50 16.09 A Few Clouds FEW047 23 9 41% 76.96 0.0
02 10:15 S 30 G 52 16.09 Fair CLR 23 9 41% 76.99 0.0
02 09:55 S 35 G 46 16.09 Fair and Breezy CLR 22 9 44% 76.96 0.0
02 09:35 S 24 G 44 16.09 A Few Clouds FEW075 22 9 44% 76.96 0.0
02 09:15 S 30 G 43 16.09 A Few Clouds FEW080 21 9 46% 76.96 0.0
02 08:55 S 30 G 46 16.09 A Few Clouds FEW060 FEW070 FEW080 21 10 50% 76.96 0.0
02 08:35 S 22 16.09 A Few Clouds FEW060 FEW075 21 11 53% 76.94 0.0
02 08:15 S 28 16.09 Fair CLR 20 11 56% 76.94 0.0
02 07:55 S 22 G 39 16.09 Fair CLR 20 12 60% 76.94 0.0
02 07:35 S 28 G 41 16.09 Fair CLR 19 12 64% 76.94 0.0
02 07:15 S 26 G 35 16.09 Fair CLR 19 13 68% 76.94 0.0
02 06:55 S 28 16.09 Fair CLR 18 13 73% 76.91 0.0
02 06:35 S 19 G 31 16.09 A Few Clouds FEW023 FEW065 17 13 77% 76.89 0.0
02 06:15 S 22 16.09 A Few Clouds FEW024 17 13 77% 76.89 0.0
02 05:55 S 24 16.09 Fair CLR 17 13 77% 76.89 0.0
02 05:35 S 22 16.09 A Few Clouds FEW029 FEW038 17 13 77% 76.89 0.0
02 05:15 S 24 16.09 Partly Cloudy FEW027 SCT033 SCT090 17 13 77% 76.86 0.0
02 04:55 S 15 G 33 16.09 Partly Cloudy FEW025 FEW032 SCT038 17 13 77% 76.86 0.0
02 04:35 S 19 G 30 12.87 Light Rain FEW038 BKN055 BKN070 17 12 73% 76.86 0.0
02 04:15 S 17 16.09 Mostly Cloudy FEW032 SCT070 BKN090 16 12 77% 76.86 0.0
02 03:55 S 19 16.09 Mostly Cloudy SCT028 SCT033 BKN039 16 12 77% 76.86 0.0
02 03:35 S 17 16.09 Mostly Cloudy FEW026 SCT030 BKN045 16 12 77% 76.89 0.0
02 03:15 S 15 16.09 Mostly Cloudy FEW028 SCT033 BKN100 16 12 77% 76.89 0.0
02 02:55 SE 20 16.09 Mostly Cloudy FEW034 SCT041 BKN090 16 12 77% 76.89 0.0
02 02:35 S 15 G 30 16.09 Overcast BKN090 OVC110 18 11 64% 76.89 0.0
02 02:15 S 17 16.09 Mostly Cloudy BKN085 BKN110 17 11 68% 76.89 0.0
02 01:55 S 15 16.09 Overcast FEW028 SCT070 OVC085 17 12 73% 76.89 0.0
02 01:35 SE 17 16.09 Mostly Cloudy FEW034 SCT050 BKN075 18 11 64% 76.91 0.0
02 01:15 S 15 16.09 Mostly Cloudy FEW040 BKN090 17 11 68% 76.91 0.0
02 00:55 S 15 16.09 A Few Clouds FEW040 17 11 68% 76.94 0.0
02 00:35 S 17 16.09 A Few Clouds FEW041 FEW048 FEW090 17 11 68% 76.94 0.0
02 00:15 SE 17 16.09 Partly Cloudy FEW038 SCT045 SCT110 17 10 64% 76.91 0.0
01 23:55 S 13 16.09 Fair CLR 17 10 64% 76.94 0.0
01 23:35 S 17 16.09 Fair CLR 17 10 64% 76.94 0.0
01 23:15 S 13 16.09 A Few Clouds FEW038 17 10 64% 76.94 0.0
01 22:55 S 13 16.09 A Few Clouds FEW036 FEW041 FEW095 18 10 60% 76.94 0.0
01 22:35 SW 15 16.09 A Few Clouds FEW034 FEW041 FEW048 18 10 60% 76.94 0.0
01 22:15 S 17 16.09 Fair CLR 18 10 60% 76.94 0.0
01 21:55 S 17 16.09 Fair CLR 18 10 60% 76.94 0.0
01 21:35 S 19 16.09 Fair CLR 19 10 56% 76.96 0.0
01 21:15 S 15 16.09 Fair CLR 18 10 60% 76.94 0.0
01 20:55 S 17 16.09 Fair CLR 19 10 56% 76.94 0.0
01 20:35 S 13 16.09 Fair CLR 19 10 56% 76.91 0.0
01 20:15 SW 13 16.09 Fair CLR 19 10 56% 76.89 0.0
01 19:55 S 15 16.09 Fair CLR 19 10 56% 76.86 0.0
01 19:35 SW 11 G 28 16.09 Fair CLR 20 9 49% 76.86 0.0
01 19:15 SW 19 16.09 Fair CLR 20 9 49% 76.84 0.0
01 18:55 SW 19 16.09 Fair CLR 21 9 46% 76.84 0.0
01 18:35 SW 17 G 33 16.09 Fair CLR 22 7 38% 76.84 0.0
01 18:15 SW 17 G 30 16.09 Fair CLR 22 7 38% 76.84 0.0
01 17:55 SW 20 G 30 16.09 Partly Cloudy SCT060 SCT070 SCT095 23 8 38% 76.84 0.0
01 17:35 SW 24 G 33 16.09 Mostly Cloudy SCT060 BKN095 24 8 36% 25 76.84 0.0
01 17:15 SW 20 G 37 16.09 Partly Cloudy SCT070 SCT085 SCT110 23 7 36% 76.84 0.0
01 16:55 S 30 G 41 16.09 Partly Cloudy SCT070 25 7 32% 25 76.84 0.0
01 16:35 SW 20 G 46 16.09 A Few Clouds FEW070 FEW085 25 6 30% 25 76.84 0.0
01 16:15 SW 22 G 41 16.09 Fair CLR 24 6 31% 25 76.84 0.0
01 15:55 SW 28 G 37 16.09 Fair CLR 25 6 30% 25 76.84 0.0
01 15:35 SW 24 G 39 16.09 Fair CLR 25 8 34% 26 76.86 0.0
01 15:15 S 39 G 48 16.09 Fair and Breezy CLR 25 9 36% 26 76.86 0.0
01 14:55 S 35 G 46 16.09 Fair and Breezy CLR 25 7 32% 25 76.89 0.0
01 14:35 S 26 G 43 16.09 Fair CLR 25 10 39% 26 76.89 0.0
01 14:15 S 26 G 44 16.09 A Few Clouds FEW060 FEW070 FEW120 24 8 36% 25 76.91 0.0
01 13:55 S 26 G 44 16.09 A Few Clouds FEW060 FEW070 25 7 32% 25 76.91 0.0
01 13:35 S 28 G 52 16.09 Fair CLR 25 7 32% 25 76.91 0.0
01 13:15 S 33 G 44 16.09 A Few Clouds and Breezy FEW055 FEW065 25 7 32% 25 76.94 0.0
01 12:55 S 19 G 44 16.09 Partly Cloudy SCT055 SCT070 SCT085 25 9 36% 26 76.96 0.0
01 12:35 SW 24 G 39 16.09 Mostly Cloudy SCT055 BKN070 BKN085 23 8 38% 76.96 0.0
01 12:15 S 15 G 39 16.09 A Few Clouds FEW055 FEW085 24 8 36% 25 76.99 0.0
01 11:55 SW 22 G 35 16.09 A Few Clouds FEW050 FEW055 FEW065 24 8 36% 25 76.99 0.0
01 11:35 S 26 G 39 16.09 A Few Clouds FEW060 FEW070 24 7 34% 25 77.01 0.0
01 11:15 SW 19 G 33 16.09 A Few Clouds FEW060 24 8 36% 25 77.01 0.0
01 10:55 SW 17 G 33 16.09 A Few Clouds FEW055 24 8 36% 25 77.01 0.0
01 10:35 S 24 16.09 Fair CLR 23 8 38% 77.01 0.0
01 10:15 SW 15 G 30 16.09 Fair CLR 23 8 38% 77.01 0.0
01 09:55 S 15 16.09 Fair CLR 22 9 44% 76.99 0.0
01 09:35 S 9 G 19 16.09 A Few Clouds FEW032 22 10 47% 76.99 0.0
01 09:15 Vrbl 7 G 19 16.09 Partly Cloudy SCT033 22 11 50% 76.96 0.0
01 08:55 Vrbl 6 16.09 A Few Clouds FEW026 20 12 60% 76.96 0.0
01 08:35 SE 11 16.09 A Few Clouds FEW026 20 12 60% 76.96 0.0
01 08:15 S 6 16.09 Fair CLR 19 12 64% 76.96 0.0
01 07:55 SE 9 16.09 Fair CLR 18 12 68% 76.96 0.0
01 07:35 SE 9 16.09 Fair CLR 16 12 77% 76.99 0.0
01 07:15 SE 9 16.09 Fair CLR 15 11 77% 76.99 0.0
01 06:55 SE 11 16.09 Fair CLR 13 11 88% 76.96 0.0
01 06:35 SE 13 16.09 Fair CLR 12 10 88% 76.96 0.0
01 06:15 SE 13 16.09 Fair CLR 11 10 94% 76.96 0.0
01 05:55 S 15 16.09 Partly Cloudy FEW036 SCT043 SCT050 11 9 88% 76.94 0.0
Date Time (mst) Wind (kph) Vis. (km) Weather Sky Cond. Air Dwpt Max. Min. Relative Humidity Wind Chill (°C) Heat Index (°C) altimeter (cm) sea level (mb) 1 hr 3 hr 6 hr
6 hour
Temperature (ºC) Pressure Precipitation (cm)